Time;durP1;ratioP1;P1;durP2;ratioP2;P2;SDS_P1;SDS_P2;PMS_P1;PMS_P2;Temp;Humidity;BMP_temperature;BMP_pressure;BME280_temperature;BME280_humidity;BME280_pressure;Samples;Min_cycle;Max_cycle;Signal;HPM_P1;HPM_P2
2024/01/06 00:02:05;;;;;;;23.25;8.45;;;;;;;12.54;59.24;100751.28;5090222;28;20423;-74
2024/01/06 00:04:31;;;;;;;16.00;7.32;;;;;;;12.31;59.81;100714.69;5088865;28;20032;-75
2024/01/06 00:06:56;;;;;;;18.35;7.57;;;;;;;12.53;59.87;100757.69;5088618;28;20169;-73
2024/01/06 00:09:22;;;;;;;24.45;8.07;;;;;;;12.55;59.77;100747.63;5088443;28;20035;-75
2024/01/06 00:11:47;;;;;;;28.73;8.50;;;;;;;12.57;59.87;100754.59;5088392;28;20024;-75
2024/01/06 00:14:13;;;;;;;15.65;8.02;;;;;;;12.63;59.78;100742.38;5088835;28;20020;-76
2024/01/06 00:16:38;;;;;;;28.55;9.85;;;;;;;12.61;59.84;100744.38;5088514;28;20403;-75
2024/01/06 00:19:04;;;;;;;26.90;9.45;;;;;;;12.66;59.82;100747.53;5088569;28;20047;-74
2024/01/06 00:21:29;;;;;;;17.05;8.70;;;;;;;12.62;59.85;100734.44;5088032;28;20396;-76
2024/01/06 00:23:58;;;;;;;20.40;8.75;;;;;;;12.72;59.74;100740.75;5088443;28;20020;-74
2024/01/06 00:26:24;;;;;;;18.08;8.40;;;;;;;12.70;59.88;100726.53;5088004;28;20050;-75
2024/01/06 00:28:50;;;;;;;23.40;10.07;;;;;;;12.63;59.74;100704.63;5088616;28;20514;-75
2024/01/06 00:31:19;;;;;;;18.75;9.35;;;;;;;12.83;59.61;100733.41;5086924;28;20053;-75
2024/01/06 00:33:45;;;;;;;23.92;7.60;;;;;;;12.82;59.58;100731.69;5088170;28;20105;-75
2024/01/06 00:36:11;;;;;;;15.85;8.82;;;;;;;12.87;59.45;100734.81;5088147;28;20449;-76
2024/01/06 00:38:36;;;;;;;14.98;8.43;;;;;;;12.93;59.70;100734.31;5088375;28;20395;-76
2024/01/06 00:41:02;;;;;;;13.98;7.93;;;;;;;12.89;59.67;100727.47;5088748;28;20115;-75
2024/01/06 00:43:27;;;;;;;22.23;10.13;;;;;;;12.88;59.45;100720.34;5087743;28;20035;-77
2024/01/06 00:45:53;;;;;;;26.10;10.65;;;;;;;12.89;59.68;100715.81;5089557;28;20439;-73
2024/01/06 00:48:18;;;;;;;41.50;12.45;;;;;;;12.86;59.64;100716.94;5093914;28;20060;-76
2024/01/06 00:50:44;;;;;;;28.10;11.40;;;;;;;12.82;59.46;100709.22;5093623;28;20154;-76
2024/01/06 00:53:09;;;;;;;32.85;12.52;;;;;;;12.87;60.09;100707.81;5088582;28;20028;-74
2024/01/06 00:55:35;;;;;;;33.08;12.75;;;;;;;12.91;59.83;100714.66;5087770;28;20024;-75
2024/01/06 00:58:00;;;;;;;30.60;16.52;;;;;;;12.93;59.56;100709.16;5068953;28;20036;-74
2024/01/06 01:00:27;;;;;;;30.52;12.95;;;;;;;12.89;59.60;100702.31;5088120;28;20021;-77
2024/01/06 01:02:53;;;;;;;23.92;12.05;;;;;;;12.62;59.78;100670.56;5088028;28;20412;-75
2024/01/06 01:05:18;;;;;;;34.50;12.27;;;;;;;12.80;59.83;100704.00;5087732;28;20084;-75
2024/01/06 01:07:44;;;;;;;28.48;12.60;;;;;;;12.72;60.04;100681.38;5087702;28;20066;-76
2024/01/06 01:10:10;;;;;;;38.85;11.75;;;;;;;12.75;60.13;100691.91;5087664;28;20039;-75
2024/01/06 01:12:36;;;;;;;32.45;14.38;;;;;;;12.77;59.99;100690.78;5088027;28;20397;-76
2024/01/06 01:15:01;;;;;;;46.67;15.25;;;;;;;12.59;60.41;100659.19;5087919;28;20111;-75
2024/01/06 01:17:27;;;;;;;21.92;10.90;;;;;;;12.71;60.08;100679.66;5087664;28;20081;-75
2024/01/06 01:19:52;;;;;;;41.67;13.50;;;;;;;12.80;59.95;100693.19;5087965;28;20042;-76
2024/01/06 01:22:18;;;;;;;29.80;10.63;;;;;;;12.72;60.12;100676.81;5087800;28;20024;-75
2024/01/06 01:24:43;;;;;;;35.70;13.10;;;;;;;12.73;60.06;100689.31;5087614;28;20510;-75
2024/01/06 01:27:09;;;;;;;23.75;9.93;;;;;;;12.71;60.18;100690.47;5088077;28;20443;-75
2024/01/06 01:29:35;;;;;;;23.10;8.32;;;;;;;12.64;60.55;100684.75;5088022;28;20472;-76
2024/01/06 01:32:00;;;;;;;19.08;8.27;;;;;;;12.36;60.83;100642.31;5089159;28;20059;-76
2024/01/06 01:34:26;;;;;;;22.45;9.20;;;;;;;12.45;60.75;100663.09;5092142;28;20127;-76
2024/01/06 01:36:51;;;;;;;22.77;9.35;;;;;;;12.46;61.32;100664.81;5092759;28;20024;-75
2024/01/06 01:39:17;;;;;;;31.63;10.68;;;;;;;12.47;61.28;100661.13;5094820;28;20028;-74
2024/01/06 01:41:43;;;;;;;44.38;13.05;;;;;;;12.49;61.23;100659.13;5092100;28;20085;-73
2024/01/06 01:44:08;;;;;;;36.05;9.27;;;;;;;12.49;61.30;100653.75;5091644;28;20023;-75
2024/01/06 01:46:34;;;;;;;29.35;9.20;;;;;;;12.47;61.32;100639.53;5091525;28;20035;-75
2024/01/06 01:49:01;;;;;;;15.40;7.63;;;;;;;12.42;61.16;100648.03;5091577;28;20414;-74
2024/01/06 01:51:29;;;;;;;33.20;9.20;;;;;;;12.29;61.61;100636.59;5091420;28;20043;-78
2024/01/06 01:53:57;;;;;;;23.65;10.25;;;;;;;12.12;61.26;100609.44;5091055;28;20028;-75
2024/01/06 01:56:24;;;;;;;30.50;9.27;;;;;;;12.30;61.62;100637.47;5091429;28;20062;-74
2024/01/06 01:58:50;;;;;;;22.15;8.38;;;;;;;12.27;61.38;100633.22;5091674;28;20031;-74
2024/01/06 02:01:17;;;;;;;21.70;7.53;;;;;;;12.19;61.67;100634.88;5091064;28;20027;-77
2024/01/06 02:03:45;;;;;;;31.67;8.77;;;;;;;12.24;62.18;100632.63;5091353;28;20106;-76
2024/01/06 02:06:11;;;;;;;33.55;7.47;;;;;;;12.22;61.70;100624.69;5091231;28;20131;-75
2024/01/06 02:08:37;;;;;;;25.33;7.72;;;;;;;12.16;61.97;100618.97;5090866;28;20514;-76
2024/01/06 02:11:04;;;;;;;14.40;7.25;;;;;;;12.22;62.47;100619.28;5090894;28;20028;-75
2024/01/06 02:13:34;;;;;;;17.95;7.25;;;;;;;11.97;62.52;100593.63;5091055;28;20097;-75
2024/01/06 02:15:59;;;;;;;25.70;7.57;;;;;;;12.04;62.14;100614.66;5072050;28;20062;-75
2024/01/06 02:18:25;;;;;;;26.25;7.22;;;;;;;12.04;61.70;100610.13;5092422;28;20480;-75
2024/01/06 02:20:53;;;;;;;10.23;5.38;;;;;;;12.12;61.99;100623.78;5091476;28;20349;-75
2024/01/06 02:23:18;;;;;;;19.95;5.95;;;;;;;11.93;62.20;100592.19;5090350;28;20469;-75
2024/01/06 02:25:43;;;;;;;14.57;6.10;;;;;;;12.07;62.04;100611.69;5090962;28;20043;-76
2024/01/06 02:28:09;;;;;;;13.13;5.85;;;;;;;12.13;61.64;100605.75;5096784;28;20085;-74
2024/01/06 02:30:34;;;;;;;13.00;5.88;;;;;;;12.25;61.59;100619.00;5096730;28;20043;-75
2024/01/06 02:33:00;;;;;;;10.52;5.00;;;;;;;12.23;61.77;100595.88;5090577;28;20535;-75
2024/01/06 02:35:25;;;;;;;12.75;5.78;;;;;;;12.25;61.36;100593.88;5090515;28;20036;-74
2024/01/06 02:37:51;;;;;;;10.75;5.72;;;;;;;12.09;61.24;100580.91;5090847;28;20096;-75
2024/01/06 02:40:16;;;;;;;11.65;5.47;;;;;;;12.17;61.03;100582.94;5090368;28;20107;-74
2024/01/06 02:42:42;;;;;;;42.47;8.50;;;;;;;12.32;61.25;100600.47;5090639;28;20028;-77
2024/01/06 02:45:09;;;;;;;15.18;4.85;;;;;;;12.28;60.57;100582.84;5087690;28;20054;-75
2024/01/06 02:47:35;;;;;;;12.10;5.30;;;;;;;12.25;60.90;100591.19;5090578;28;20085;-78
2024/01/06 02:50:00;;;;;;;19.77;5.18;;;;;;;12.21;60.90;100573.56;5089972;28;20028;-74
2024/01/06 02:52:26;;;;;;;12.70;5.72;;;;;;;12.29;60.78;100592.63;5090519;28;20024;-76
2024/01/06 02:54:51;;;;;;;9.75;5.00;;;;;;;12.29;60.98;100601.56;5089234;28;20466;-75
2024/01/06 02:57:17;;;;;;;18.10;4.88;;;;;;;12.18;60.67;100568.44;5090109;28;20030;-75
2024/01/06 02:59:43;;;;;;;16.33;4.85;;;;;;;12.29;60.98;100589.94;5090340;28;20031;-76
2024/01/06 03:02:08;;;;;;;9.25;4.82;;;;;;;12.25;60.50;100599.28;5089713;28;20028;-76
2024/01/06 03:04:34;;;;;;;11.23;5.47;;;;;;;12.17;60.72;100597.25;5090354;28;20024;-74
2024/01/06 03:06:59;;;;;;;20.88;5.38;;;;;;;12.13;60.75;100597.69;5089911;28;20039;-76
2024/01/06 03:09:25;;;;;;;17.77;5.63;;;;;;;12.13;61.45;100597.69;5090435;28;20142;-75
2024/01/06 03:11:50;;;;;;;9.60;4.53;;;;;;;12.14;61.35;100596.69;5091227;28;20058;-75
2024/01/06 03:14:16;;;;;;;8.82;5.18;;;;;;;12.05;60.79;100602.91;5090239;28;20027;-76
2024/01/06 03:16:41;;;;;;;12.68;5.32;;;;;;;12.04;61.56;100595.78;5091044;28;20031;-75
2024/01/06 03:19:07;;;;;;;17.88;5.63;;;;;;;12.11;62.00;100591.56;5095370;28;20032;-76
2024/01/06 03:21:32;;;;;;;21.42;5.72;;;;;;;12.12;62.08;100607.59;5094871;28;20031;-75
2024/01/06 03:23:58;;;;;;;18.45;5.15;;;;;;;12.09;62.13;100590.84;5089559;28;20028;-77
2024/01/06 03:26:23;;;;;;;17.80;4.88;;;;;;;12.08;62.41;100584.59;5089853;28;20527;-75
2024/01/06 03:28:49;;;;;;;35.30;7.03;;;;;;;12.18;62.64;100590.03;5088962;28;20020;-74
2024/01/06 03:31:15;;;;;;;10.70;5.43;;;;;;;12.22;62.75;100577.97;5089526;28;20028;-75
2024/01/06 03:33:41;;;;;;;20.70;6.13;;;;;;;12.24;63.66;100586.78;5089063;28;20020;-75
2024/01/06 03:36:07;;;;;;;19.42;5.55;;;;;;;12.29;64.30;100581.84;5089801;28;20411;-76
2024/01/06 03:38:33;;;;;;;8.65;4.85;;;;;;;12.25;64.81;100570.47;5088975;28;20028;-74
2024/01/06 03:40:59;;;;;;;20.35;4.75;;;;;;;12.38;65.84;100572.94;5087481;28;20028;-74
2024/01/06 03:43:24;;;;;;;17.65;5.47;;;;;;;12.34;65.83;100556.16;5069878;28;20416;-75
2024/01/06 03:45:50;;;;;;;16.27;4.75;;;;;;;12.47;66.12;100562.19;5088641;28;20036;-76
2024/01/06 03:48:15;;;;;;;16.67;5.55;;;;;;;12.50;66.45;100563.75;5089233;28;20494;-76
2024/01/06 03:50:41;;;;;;;9.50;5.18;;;;;;;12.35;66.59;100548.94;5089035;28;20032;-75
2024/01/06 03:53:06;;;;;;;12.55;5.78;;;;;;;12.42;66.25;100541.97;5089491;28;20020;-75
2024/01/06 03:55:32;;;;;;;15.85;5.82;;;;;;;12.56;66.36;100560.47;5088346;28;20042;-74
2024/01/06 03:57:58;;;;;;;21.52;5.93;;;;;;;12.63;66.24;100572.41;5089292;28;20032;-76
2024/01/06 04:00:25;;;;;;;10.10;5.03;;;;;;;12.52;66.44;100549.13;5089101;28;20475;-76
2024/01/06 04:02:51;;;;;;;19.30;5.60;;;;;;;12.62;66.41;100557.22;5089352;28;20533;-75
2024/01/06 04:05:16;;;;;;;20.40;6.65;;;;;;;12.45;66.54;100525.50;5089107;28;20111;-76
2024/01/06 04:07:42;;;;;;;26.13;6.38;;;;;;;12.49;66.34;100526.97;5090522;28;20691;-77
2024/01/06 04:10:08;;;;;;;21.55;6.40;;;;;;;12.61;66.43;100547.41;5095349;28;20039;-76
2024/01/06 04:12:33;;;;;;;20.80;6.65;;;;;;;12.55;66.79;100556.06;5092395;28;20106;-75
2024/01/06 04:14:59;;;;;;;12.05;5.25;;;;;;;12.47;67.17;100547.84;5089059;28;20107;-75
2024/01/06 04:17:26;;;;;;;11.32;6.40;;;;;;;12.47;66.79;100537.03;5088405;28;20024;-73
2024/01/06 04:19:52;;;;;;;20.25;7.18;;;;;;;12.54;66.85;100544.41;5088445;28;20024;-78
2024/01/06 04:22:18;;;;;;;18.15;6.03;;;;;;;12.53;67.54;100542.75;5088694;28;20020;-74
2024/01/06 04:24:44;;;;;;;16.75;5.82;;;;;;;12.60;67.74;100552.97;5088154;28;20028;-74
2024/01/06 04:27:09;;;;;;;15.20;6.05;;;;;;;12.56;67.85;100547.00;5088263;28;20048;-74
2024/01/06 04:29:35;;;;;;;11.65;6.65;;;;;;;12.56;67.73;100549.69;5087919;28;20099;-74
2024/01/06 04:32:01;;;;;;;15.95;6.65;;;;;;;12.52;68.00;100550.94;5088031;28;20047;-79
2024/01/06 04:34:26;;;;;;;17.25;6.30;;;;;;;12.57;68.61;100554.06;5088303;28;20039;-75
2024/01/06 04:36:52;;;;;;;17.45;7.22;;;;;;;12.47;68.13;100548.69;5088290;28;20118;-75
2024/01/06 04:39:17;;;;;;;18.23;6.72;;;;;;;12.50;68.41;100542.16;5087993;28;20024;-74
2024/01/06 04:41:43;;;;;;;21.35;8.05;;;;;;;12.47;68.02;100542.44;5088094;28;20036;-79
2024/01/06 04:44:09;;;;;;;13.23;7.28;;;;;;;12.40;68.58;100538.56;5087932;28;20028;-74
2024/01/06 04:46:34;;;;;;;27.00;7.57;;;;;;;12.34;68.71;100531.03;5087783;28;20032;-77
2024/01/06 04:49:00;;;;;;;23.35;6.68;;;;;;;12.27;68.82;100509.16;5088258;28;20032;-74
2024/01/06 04:51:25;;;;;;;21.77;6.13;;;;;;;12.30;68.46;100527.75;5089524;28;20462;-74
2024/01/06 04:53:51;;;;;;;22.52;6.25;;;;;;;12.40;68.77;100546.66;5089485;28;20028;-76
2024/01/06 04:56:16;;;;;;;45.13;8.32;;;;;;;12.44;69.23;100543.56;5088168;28;20028;-75
2024/01/06 04:58:42;;;;;;;15.25;7.47;;;;;;;12.45;69.22;100552.50;5093897;28;20050;-78
2024/01/06 05:01:08;;;;;;;24.95;9.38;;;;;;;12.36;69.12;100538.00;5096868;28;20052;-76
2024/01/06 05:03:33;;;;;;;26.80;8.40;;;;;;;12.49;69.02;100568.28;5087653;28;20078;-76
2024/01/06 05:05:59;;;;;;;25.75;10.13;;;;;;;12.49;68.99;100560.19;5087809;28;20036;-76
2024/01/06 05:08:24;;;;;;;27.67;8.48;;;;;;;12.50;69.34;100563.75;5086931;28;20024;-76
2024/01/06 05:10:53;;;;;;;28.48;8.38;;;;;;;12.59;68.97;100576.41;5085527;28;20097;-75
2024/01/06 05:13:19;;;;;;;49.45;10.57;;;;;;;12.53;68.68;100567.00;5087459;28;20032;-76
2024/01/06 05:15:44;;;;;;;22.20;8.70;;;;;;;12.56;69.31;100573.97;5087836;28;20408;-75
2024/01/06 05:18:10;;;;;;;20.63;7.20;;;;;;;12.48;69.20;100568.41;5087534;28;21017;-75
2024/01/06 05:20:36;;;;;;;28.33;9.82;;;;;;;12.40;69.09;100546.66;5068555;28;20152;-75
2024/01/06 05:23:01;;;;;;;35.38;9.52;;;;;;;12.48;69.12;100565.69;5087458;28;20027;-76
2024/01/06 05:25:27;;;;;;;21.42;9.20;;;;;;;12.45;69.27;100552.50;5087842;28;20079;-74
2024/01/06 05:27:52;;;;;;;48.45;12.30;;;;;;;12.54;69.07;100571.41;5087860;28;20059;-75
2024/01/06 05:30:18;;;;;;;46.42;10.95;;;;;;;12.51;69.18;100581.59;5087145;28;20032;-75
2024/01/06 05:32:43;;;;;;;26.02;7.70;;;;;;;12.44;69.38;100569.69;5087794;28;20122;-75
2024/01/06 05:35:09;;;;;;;32.58;7.18;;;;;;;12.57;69.60;100591.03;5068377;28;20076;-75
2024/01/06 05:37:34;;;;;;;38.10;8.75;;;;;;;12.59;69.55;100589.88;5088736;28;20020;-75
2024/01/06 05:40:03;;;;;;;36.30;8.85;;;;;;;12.57;69.41;100591.03;5087940;28;20066;-76
2024/01/06 05:42:28;;;;;;;30.50;8.90;;;;;;;12.62;69.78;100600.41;5088707;28;20063;-75
2024/01/06 05:44:54;;;;;;;28.55;9.32;;;;;;;12.62;69.47;100595.00;5088445;28;20055;-73
2024/01/06 05:47:20;;;;;;;21.27;9.18;;;;;;;12.55;69.60;100583.06;5088767;28;20028;-75
2024/01/06 05:49:46;;;;;;;18.63;8.77;;;;;;;12.64;69.59;100593.00;5091500;28;20040;-75
2024/01/06 05:52:11;;;;;;;30.65;10.27;;;;;;;12.66;69.47;100571.31;5090464;28;20028;-75
2024/01/06 05:54:42;;;;;;;33.63;11.48;;;;;;;12.68;69.71;100583.66;5088072;28;20400;-75
2024/01/06 05:57:07;;;;;;;56.60;10.70;;;;;;;12.72;69.41;100582.34;5087652;28;20030;-75
2024/01/06 05:59:33;;;;;;;55.67;11.52;;;;;;;12.64;69.49;100576.81;5087380;28;20114;-77
2024/01/06 06:01:58;;;;;;;50.30;12.55;;;;;;;12.69;69.59;100590.72;5088069;28;20044;-75
2024/01/06 06:04:24;;;;;;;50.80;10.15;;;;;;;12.65;69.24;100591.16;5087682;28;20024;-75
2024/01/06 06:06:49;;;;;;;40.05;10.27;;;;;;;12.58;69.30;100571.97;5087584;28;20433;-74
2024/01/06 06:09:15;;;;;;;19.73;10.70;;;;;;;12.54;69.58;100581.34;5087230;28;20058;-75
2024/01/06 06:11:41;;;;;;;33.80;10.63;;;;;;;12.43;69.76;100557.19;5068394;28;20052;-75
2024/01/06 06:14:06;;;;;;;34.83;12.98;;;;;;;12.47;69.81;100570.28;5086830;28;20043;-75
2024/01/06 06:16:32;;;;;;;27.75;10.88;;;;;;;12.57;69.94;100575.66;5087563;28;20020;-77
2024/01/06 06:18:58;;;;;;;27.10;10.07;;;;;;;12.51;70.24;100568.13;5089739;28;20039;-80
2024/01/06 06:21:23;;;;;;;51.10;12.60;;;;;;;12.59;69.89;100589.88;5087556;28;20510;-75
2024/01/06 06:23:49;;;;;;;34.95;10.73;;;;;;;12.64;70.31;100582.22;5090432;28;20047;-75
2024/01/06 06:26:15;;;;;;;53.55;15.65;;;;;;;12.65;70.22;100577.69;5090968;28;20040;-76
2024/01/06 06:28:41;;;;;;;30.42;10.20;;;;;;;12.55;70.05;100556.94;5090574;28;20116;-76
2024/01/06 06:31:07;;;;;;;30.70;9.57;;;;;;;12.64;70.10;100567.88;5090887;28;20554;-77
2024/01/06 06:33:35;;;;;;;54.17;11.00;;;;;;;12.69;70.33;100582.63;5092124;28;20111;-74
2024/01/06 06:36:04;;;;;;;58.92;13.05;;;;;;;12.65;70.21;100566.88;5091345;28;20059;-74
2024/01/06 06:38:29;;;;;;;25.10;9.98;;;;;;;12.72;69.83;100576.13;5093327;28;20024;-76
2024/01/06 06:40:55;;;;;;;42.83;11.30;;;;;;;12.79;70.08;100591.63;5096621;28;20039;-74
2024/01/06 06:43:21;;;;;;;29.55;10.10;;;;;;;12.70;69.69;100549.28;5091541;28;20036;-76
2024/01/06 06:45:46;;;;;;;33.65;10.68;;;;;;;12.76;69.63;100570.31;5090445;28;20024;-76
2024/01/06 06:48:12;;;;;;;55.47;12.82;;;;;;;12.90;69.53;100585.25;5090295;28;20028;-74
2024/01/06 06:50:38;;;;;;;32.58;11.35;;;;;;;12.88;69.72;100563.78;5089903;28;20090;-73
2024/01/06 06:53:03;;;;;;;39.40;16.25;;;;;;;12.80;69.43;100546.59;5089891;28;20027;-76
2024/01/06 06:55:29;;;;;;;74.90;20.08;;;;;;;12.85;69.44;100533.50;5090191;28;20067;-77
2024/01/06 06:57:54;;;;;;;81.13;23.58;;;;;;;13.05;69.26;100573.91;5089792;28;20392;-75
2024/01/06 07:00:20;;;;;;;72.53;18.38;;;;;;;13.14;69.02;100574.91;5089690;28;20055;-75
2024/01/06 07:02:48;;;;;;;45.83;14.70;;;;;;;13.11;68.68;100558.16;5090876;28;20027;-76
2024/01/06 07:05:14;;;;;;;55.55;16.00;;;;;;;13.25;68.55;100572.06;5090057;28;20032;-77
2024/01/06 07:07:39;;;;;;;25.23;13.25;;;;;;;13.27;68.31;100559.25;5089795;28;20506;-76
2024/01/06 07:10:05;;;;;;;57.30;15.27;;;;;;;13.45;68.21;100578.31;5089616;28;20042;-76
2024/01/06 07:12:32;;;;;;;72.80;14.25;;;;;;;13.47;68.23;100560.09;5089162;28;20024;-78
2024/01/06 07:15:00;;;;;;;52.38;10.98;;;;;;;13.49;68.13;100552.69;5089425;28;20036;-76
2024/01/06 07:17:26;;;;;;;72.32;12.50;;;;;;;13.63;68.06;100560.34;5089633;28;20032;-75
2024/01/06 07:19:51;;;;;;;63.08;12.80;;;;;;;13.61;68.14;100555.06;5087092;28;20028;-76
2024/01/06 07:22:18;;;;;;;115.53;17.65;;;;;;;13.56;67.81;100526.78;5070881;28;20064;-76
2024/01/06 07:24:44;;;;;;;48.58;12.07;;;;;;;13.78;67.92;100558.03;5070499;28;20024;-76
2024/01/06 07:27:09;;;;;;;66.63;12.73;;;;;;;13.74;67.38;100541.25;5084693;28;20040;-77
2024/01/06 07:29:35;;;;;;;78.28;18.55;;;;;;;13.86;67.59;100533.81;5094263;28;20071;-78
2024/01/06 07:32:00;;;;;;;60.95;13.13;;;;;;;14.03;67.43;100558.22;5092839;28;20066;-74
2024/01/06 07:34:26;;;;;;;79.90;13.85;;;;;;;14.11;67.34;100544.81;5086254;28;20473;-78
2024/01/06 07:36:51;;;;;;;100.18;16.67;;;;;;;14.21;67.19;100544.75;5088910;28;20032;-76
2024/01/06 07:39:17;;;;;;;38.90;12.73;;;;;;;14.35;66.93;100538.00;5088637;28;20028;-75
2024/01/06 07:41:42;;;;;;;110.47;15.20;;;;;;;14.44;66.73;100537.09;5087442;28;20043;-75
2024/01/06 07:44:08;;;;;;;62.72;12.18;;;;;;;14.49;66.92;100548.34;5088655;28;20031;-77
2024/01/06 07:46:35;;;;;;;93.28;14.73;;;;;;;14.57;67.03;100543.00;5089066;28;20063;-76
2024/01/06 07:49:00;;;;;;;77.13;11.93;;;;;;;14.62;66.65;100527.16;5087429;28;20057;-77
2024/01/06 07:51:26;;;;;;;71.18;12.15;;;;;;;14.76;66.65;100534.78;5088917;28;20032;-77
2024/01/06 07:53:51;;;;;;;60.95;12.30;;;;;;;14.89;65.99;100540.63;5088626;28;20028;-75
2024/01/06 07:56:17;;;;;;;65.85;10.65;;;;;;;14.94;66.44;100542.88;5087627;28;20039;-75
2024/01/06 07:58:43;;;;;;;37.15;9.20;;;;;;;14.90;66.08;100534.22;5089064;28;20024;-75
2024/01/06 08:01:08;;;;;;;42.60;9.63;;;;;;;15.00;65.88;100534.16;5088765;28;20027;-76
2024/01/06 08:03:34;;;;;;;104.53;15.27;;;;;;;15.03;65.82;100521.16;5088214;28;20032;-76
2024/01/06 08:06:00;;;;;;;73.10;13.80;;;;;;;15.18;65.59;100525.00;5089162;28;20146;-75
2024/01/06 08:08:26;;;;;;;79.13;15.77;;;;;;;15.23;65.27;100522.66;5088610;28;20400;-78
2024/01/06 08:10:52;;;;;;;30.90;11.02;;;;;;;15.28;65.41;100546.59;5086211;28;20039;-79
2024/01/06 08:13:17;;;;;;;25.80;7.45;;;;;;;15.28;65.50;100543.88;5088680;28;20111;-77
2024/01/06 08:15:43;;;;;;;33.72;8.20;;;;;;;15.31;65.55;100543.56;5088968;28;20028;-75
2024/01/06 08:18:08;;;;;;;25.67;7.25;;;;;;;15.36;65.57;100529.53;5100101;28;20043;-82
2024/01/06 08:20:34;;;;;;;38.15;9.48;;;;;;;15.54;65.46;100524.94;5101797;28;20016;-76
2024/01/06 08:22:59;;;;;;;29.45;8.15;;;;;;;15.66;64.61;100518.25;5089664;28;20024;-75
2024/01/06 08:25:25;;;;;;;122.20;14.55;;;;;;;15.74;65.06;100523.75;5087105;28;20073;-73
2024/01/06 08:27:50;;;;;;;75.35;10.05;;;;;;;15.85;64.57;100526.16;5087759;28;20115;-74
2024/01/06 08:30:16;;;;;;;24.75;8.00;;;;;;;15.94;63.75;100530.63;5087888;28;20063;-75
2024/01/06 08:32:41;;;;;;;27.58;7.32;;;;;;;15.98;62.88;100515.72;5085724;28;20471;-75
2024/01/06 08:35:07;;;;;;;43.90;9.25;;;;;;;15.93;63.15;100496.34;5087671;28;20502;-79
2024/01/06 08:37:32;;;;;;;32.95;7.53;;;;;;;15.86;63.34;100484.47;5086115;28;20028;-75
2024/01/06 08:39:58;;;;;;;24.35;8.02;;;;;;;16.15;63.43;100511.22;5087404;28;20027;-75
2024/01/06 08:42:25;;;;;;;45.17;10.88;;;;;;;16.25;62.90;100499.22;5087229;28;20063;-74
2024/01/06 08:44:51;;;;;;;300.98;39.45;;;;;;;16.32;62.59;100504.84;5087226;28;20035;-75
2024/01/06 08:47:17;;;;;;;79.70;11.60;;;;;;;16.32;63.15;100505.72;5084468;28;20050;-74
2024/01/06 08:49:42;;;;;;;83.03;11.02;;;;;;;16.46;62.99;100497.91;5087283;28;20028;-73
2024/01/06 08:52:08;;;;;;;45.38;8.60;;;;;;;16.52;62.56;100476.38;5087680;28;20074;-75
2024/01/06 08:54:34;;;;;;;57.55;9.68;;;;;;;16.63;61.87;100491.56;5087155;28;20198;-75
2024/01/06 08:57:00;;;;;;;27.73;7.90;;;;;;;16.11;63.42;100490.88;5068071;28;20039;-74
2024/01/06 08:59:25;;;;;;;27.52;7.35;;;;;;;16.08;63.66;100481.19;5086783;28;20075;-75
2024/01/06 09:01:52;;;;;;;72.32;9.23;;;;;;;16.10;64.03;100481.00;5088291;28;20024;-75
2024/01/06 09:04:18;;;;;;;90.97;9.85;;;;;;;16.07;63.78;100474.06;5085341;28;20033;-75
2024/01/06 09:06:45;;;;;;;28.35;6.95;;;;;;;15.95;63.86;100466.38;5087796;28;20027;-74
2024/01/06 09:09:10;;;;;;;27.10;6.70;;;;;;;15.91;64.33;100468.56;5088942;28;20024;-74
2024/01/06 09:11:36;;;;;;;20.98;6.32;;;;;;;15.79;64.30;100437.31;5090914;28;20695;-79
2024/01/06 09:14:02;;;;;;;32.38;6.25;;;;;;;15.59;64.63;100438.59;5092109;28;20031;-75
2024/01/06 09:16:27;;;;;;;18.52;6.43;;;;;;;15.73;65.14;100468.66;5087592;28;20419;-73
2024/01/06 09:18:53;;;;;;;54.47;7.95;;;;;;;15.78;65.38;100458.16;5086915;28;20040;-75
2024/01/06 09:21:18;;;;;;;44.78;7.82;;;;;;;15.58;65.75;100464.00;5087032;28;20111;-74
2024/01/06 09:23:44;;;;;;;24.00;6.00;;;;;;;15.21;66.57;100421.72;5086787;28;20036;-77
2024/01/06 09:26:10;;;;;;;64.50;10.63;;;;;;;15.37;67.28;100450.78;5087073;28;20522;-76
2024/01/06 09:28:35;;;;;;;98.50;11.30;;;;;;;15.55;66.98;100445.34;5086613;28;20043;-74
2024/01/06 09:31:01;;;;;;;26.52;8.07;;;;;;;15.68;66.39;100440.31;5086365;28;20032;-77
2024/01/06 09:33:26;;;;;;;17.25;6.18;;;;;;;15.90;66.21;100445.16;5086733;28;20028;-77
2024/01/06 09:35:52;;;;;;;76.07;9.15;;;;;;;16.02;66.18;100443.88;5085813;28;20032;-73
2024/01/06 09:38:18;;;;;;;92.75;12.90;;;;;;;16.20;65.76;100417.47;5086888;28;20020;-75
2024/01/06 09:40:44;;;;;;;66.40;10.38;;;;;;;16.40;64.86;100409.84;5086010;28;20851;-73
2024/01/06 09:43:13;;;;;;;53.33;8.27;;;;;;;16.50;64.40;100412.41;5087399;28;20040;-73
2024/01/06 09:45:39;;;;;;;74.10;10.93;;;;;;;16.61;63.84;100393.09;5086590;28;20488;-73
2024/01/06 09:48:15;;;;;;;38.55;8.55;;;;;;;16.71;63.21;100385.66;5087324;28;20028;-75
2024/01/06 09:50:41;;;;;;;79.32;14.88;;;;;;;16.92;62.69;100404.13;5088157;28;20134;-75
2024/01/06 09:53:10;;;;;;;38.85;10.48;;;;;;;16.85;63.11;100406.69;5088937;28;20635;-78
2024/01/06 09:55:36;;;;;;;19.10;7.00;;;;;;;16.51;63.37;100406.81;5091953;28;20046;-73
2024/01/06 09:58:02;;;;;;;29.23;6.50;;;;;;;16.44;63.77;100396.81;5091726;28;20020;-75
2024/01/06 10:00:28;;;;;;;34.13;7.18;;;;;;;16.46;63.90;100392.03;5092008;28;20071;-75
2024/01/06 10:02:55;;;;;;;30.38;7.15;;;;;;;16.39;63.87;100385.63;5090266;28;20384;-75
2024/01/06 10:05:20;;;;;;;25.30;6.18;;;;;;;16.09;64.14;100349.94;5090834;28;20115;-78
2024/01/06 10:07:47;;;;;;;20.15;6.53;;;;;;;16.20;64.43;100378.63;5090208;28;20033;-76
2024/01/06 10:10:13;;;;;;;42.35;7.70;;;;;;;16.20;64.49;100387.63;5090267;28;20111;-75
2024/01/06 10:12:40;;;;;;;21.67;5.50;;;;;;;16.04;64.64;100355.03;5082944;28;20044;-75
2024/01/06 10:15:06;;;;;;;25.95;5.80;;;;;;;16.13;64.84;100380.31;5078318;28;20032;-76
2024/01/06 10:17:33;;;;;;;34.38;6.72;;;;;;;15.98;65.12;100374.69;5089944;28;20058;-76
2024/01/06 10:19:59;;;;;;;58.53;10.98;;;;;;;16.13;65.11;100364.03;5090594;28;20020;-75
2024/01/06 10:22:25;;;;;;;30.13;8.48;;;;;;;16.18;65.12;100359.78;5089790;28;20116;-78
2024/01/06 10:24:50;;;;;;;24.23;6.53;;;;;;;16.46;65.03;100359.47;5090103;28;20106;-79
2024/01/06 10:27:16;;;;;;;40.17;8.57;;;;;;;16.25;65.48;100352.69;5092314;28;20069;-79
2024/01/06 10:29:42;;;;;;;21.95;7.72;;;;;;;16.27;64.87;100328.94;5088990;28;20505;-77
2024/01/06 10:32:08;;;;;;;29.27;7.18;;;;;;;16.40;64.60;100344.72;5090929;28;20558;-75
2024/01/06 10:34:36;;;;;;;37.85;6.00;;;;;;;16.22;64.31;100336.72;5083580;28;20116;-75
2024/01/06 10:37:02;;;;;;;13.98;6.10;;;;;;;16.09;64.70;100327.38;5085309;28;20040;-76
2024/01/06 10:39:29;;;;;;;24.27;6.97;;;;;;;16.06;65.14;100331.28;5092167;28;20039;-77
2024/01/06 10:41:55;;;;;;;29.63;8.43;;;;;;;15.83;65.87;100330.22;5093391;28;20036;-75
2024/01/06 10:44:21;;;;;;;34.97;7.20;;;;;;;15.96;65.75;100333.28;5092628;28;20016;-76
2024/01/06 10:46:48;;;;;;;32.35;7.00;;;;;;;15.83;66.13;100324.81;5091904;28;20099;-79
2024/01/06 10:49:15;;;;;;;40.17;8.65;;;;;;;15.39;66.78;100293.44;5091556;28;20036;-81
2024/01/06 10:51:41;;;;;;;33.47;7.95;;;;;;;15.35;67.81;100328.13;5095472;28;20023;-76
2024/01/06 10:54:07;;;;;;;18.75;6.40;;;;;;;15.16;68.28;100315.72;5091669;28;20036;-77
2024/01/06 10:56:38;;;;;;;28.63;8.38;;;;;;;14.89;69.68;100324.00;5089529;28;20524;-77
2024/01/06 10:59:04;;;;;;;26.08;9.52;;;;;;;14.88;70.06;100327.75;5078223;28;20110;-76
2024/01/06 11:01:31;;;;;;;54.10;9.88;;;;;;;14.74;70.67;100325.59;5089289;28;20080;-76
2024/01/06 11:03:58;;;;;;;17.77;8.05;;;;;;;14.54;71.41;100321.41;5090406;28;20020;-75
2024/01/06 11:06:24;;;;;;;32.67;8.35;;;;;;;14.49;71.49;100310.22;5088964;28;20213;-75
2024/01/06 11:09:02;;;;;;;27.15;8.27;;;;;;;14.37;71.91;100285.22;5086647;28;20058;-75